Batumi International Airport
UGSB : rendu visible

Aérodrome :











RETROUVEZ-NOUS SUR...

 
LOGIN :

S'inscrire | Disclaimer

   EN    FR    IT 

 









Légende :    VFR   VFR Marginal   IFR   IFR Intensif   IFR Très Intensif
Visi : 
Plafond : 
>= 8 km
>= 3000ft
5 à 8 km
1000 à 3000 ft
1500m à 5 km
500 à 1000 ft
800 à 1500m
200 à 500 ft
< 800m
< 200 ft
Symboles :   Orages  Brouillard  Fortes neiges  Fortes précipitations  Vent > 20 kt







- Altitude de l'aérodrome : 105 ft
- Code IATA : BUS


UGSB - Batumi International

DERNIER METAR :
  • 261830Z 00000KT 9999 FEW030 25/22 Q1011 R13/70D NOSIG

METARs EXPIRÉS :
  • 261800Z 00000KT 9999 SCT030 25/23 Q1012 R13/70D NOSIG
  • 261730Z 00000KT 9999 SCT026 26/22 Q1011 R13/CLRD70 NOSIG
  • 261700Z VRB01KT 9999 SCT022 26/23 Q1011 R13/70D NOSIG
  • 261630Z VRB01KT 9999 FEW022 27/22 Q1011 R13/70D NOSIG
  • 261600Z 28003KT 9999 FEW023 27/23 Q1012 R13/70D NOSIG

TAF TAF UGSB
Valide du 26 à 18h jusqu'au 27 à 18h UTC


261700Z 2618/2718 13012KT 9999 SCT030 TX30/2711Z TN22/2700Z
TEMPO 2618/2622 VRB02KT
BECMG 2704/2706 26007KT CAVOK
FIR UGGG / Asie



MET'MAP, la Météo Aéronautique d'un coup d'oeil ! - Copyright ORBIFLY Décembre 2007 - Disclaimer

ORBIFLY MET'MAP TEAM :

Programmation & Développement : Alexandra Zaïnal
Conception & Développement : Baudouin d'Aumeries
Co-Programmation & Développement : Marc-Olivier Méhu
Soutien technique & logistique : Manuel Goepfert

Contact : metmap@orbifly.com




SOURCES & CREDITS :

   NOAA       Earth
Advisory